Terminal Aerodrome Forecast
Issued by NWS Charleston, WV

Current Version | Previous Version | Text Only | Print | Product List | Glossary Off
Versions: 1 2 3 4 5 6 7 8 9 10 11 12 13 14 15 16 17 18 19 20 21 22 23 24

000
FTUS41 KRLX 240929 AAA
TAFCRW
TAF AMD
KCRW 240929Z 2409/2506 29007G17KT P6SM BKN018 OVC028
     FM241500 27006KT P6SM OVC017
     FM241600 27006KT P6SM OVC022
     FM250300 26006KT P6SM OVC035=

USA.gov is the U.S. government's official web portal to all federal, state and local government web resources and services.